Time;durP1;ratioP1;P1;durP2;ratioP2;P2;SDS_P1;SDS_P2;PMS_P1;PMS_P2;Temp;Humidity;BMP_temperature;BMP_pressure;BME280_temperature;BME280_humidity;BME280_pressure;Samples;Min_cycle;Max_cycle;Signal;HPM_P1;HPM_P2
2022/08/02 00:01:29;;;;;;;;;;;17.70;64.80;;;;;;5084417;28;19924;-81
2022/08/02 00:03:55;;;;;;;;;;;17.70;65.00;;;;;;5054905;28;19920;-81
2022/08/02 00:06:20;;;;;;;;;;;17.70;65.00;;;;;;5081777;28;20428;-81
2022/08/02 00:08:46;;;;;;;;;;;17.70;65.10;;;;;;5073376;28;19955;-81
2022/08/02 00:11:11;;;;;;;;;;;17.70;65.30;;;;;;5062797;28;20335;-81
2022/08/02 00:13:37;;;;;;;;;;;17.70;65.30;;;;;;5067631;28;19955;-80
2022/08/02 00:16:03;;;;;;;;;;;17.70;65.30;;;;;;5063984;28;20355;-81
2022/08/02 00:18:28;;;;;;;;;;;17.70;65.30;;;;;;5067133;28;20326;-81
2022/08/02 00:20:54;;;;;;;;;;;17.70;65.30;;;;;;5068885;28;20355;-73
2022/08/02 00:23:19;;;;;;;;;;;17.70;65.50;;;;;;5070177;28;19920;-72
2022/08/02 00:25:45;;;;;;;;;;;17.70;65.70;;;;;;5073586;28;19948;-72
2022/08/02 00:28:11;;;;;;;;;;;17.70;65.60;;;;;;5067036;28;20007;-72
2022/08/02 00:30:36;;;;;;;;;;;17.70;65.60;;;;;;5069523;28;19917;-73
2022/08/02 00:33:04;;;;;;;;;;;17.70;65.70;;;;;;5077857;28;19925;-73
2022/08/02 00:35:29;;;;;;;;;;;17.70;65.80;;;;;;5075206;28;19913;-72
2022/08/02 00:37:55;;;;;;;;;;;17.70;65.80;;;;;;5101044;28;19927;-73
2022/08/02 00:40:22;;;;;;;;;;;17.70;66.00;;;;;;5075332;28;20035;-73
2022/08/02 00:42:58;;;;;;;;;;;17.70;66.10;;;;;;5075936;28;20367;-73
2022/08/02 00:45:24;;;;;;;;;;;17.70;66.20;;;;;;5068998;28;19916;-73
2022/08/02 00:47:50;;;;;;;;;;;17.70;66.40;;;;;;5066072;28;20084;-73
2022/08/02 00:50:15;;;;;;;;;;;17.70;66.60;;;;;;5076490;28;20443;-73
2022/08/02 00:52:41;;;;;;;;;;;17.60;66.90;;;;;;5084363;28;20023;-73
2022/08/02 00:55:06;;;;;;;;;;;17.60;67.00;;;;;;5078958;28;19951;-73
2022/08/02 00:57:32;;;;;;;;;;;17.60;67.00;;;;;;5066617;28;19916;-73
2022/08/02 00:59:57;;;;;;;;;;;17.50;67.00;;;;;;5074477;28;19924;-73
2022/08/02 01:02:23;;;;;;;;;;;17.50;67.20;;;;;;5070988;28;19920;-73
2022/08/02 01:04:48;;;;;;;;;;;17.50;67.20;;;;;;5071511;28;20366;-73
2022/08/02 01:07:14;;;;;;;;;;;17.40;67.30;;;;;;5067889;28;19923;-73
2022/08/02 01:09:41;;;;;;;;;;;17.40;67.30;;;;;;5084009;28;20024;-73
2022/08/02 01:12:06;;;;;;;;;;;17.40;68.20;;;;;;5073380;28;19912;-81
2022/08/02 01:14:32;;;;;;;;;;;17.30;67.60;;;;;;5070928;28;19916;-82
2022/08/02 01:17:16;;;;;;;;;;;17.30;67.50;;;;;;5097037;28;19999;-81
2022/08/02 01:19:50;;;;;;;;;;;17.30;67.50;;;;;;5068489;28;19916;-73
2022/08/02 01:22:16;;;;;;;;;;;17.30;67.50;;;;;;5072497;28;20389;-73
2022/08/02 01:24:50;;;;;;;;;;;17.20;67.70;;;;;;5063808;28;19948;-74
2022/08/02 01:27:33;;;;;;;;;;;17.20;67.90;;;;;;5073402;28;19948;-73
2022/08/02 01:29:59;;;;;;;;;;;17.20;68.10;;;;;;5069972;28;20362;-81
2022/08/02 01:32:28;;;;;;;;;;;17.20;68.10;;;;;;5099369;27;20059;-81
2022/08/02 01:35:02;;;;;;;;;;;17.10;68.10;;;;;;5072928;28;20421;-74
2022/08/02 01:37:36;;;;;;;;;;;17.20;68.10;;;;;;5066847;28;20007;-82
2022/08/02 01:40:12;;;;;;;;;;;17.20;68.20;;;;;;5067933;28;19982;-82
2022/08/02 01:42:40;;;;;;;;;;;17.10;68.30;;;;;;5071847;28;20394;-82
2022/08/02 01:45:06;;;;;;;;;;;17.10;68.40;;;;;;5070610;28;20007;-81
2022/08/02 01:47:34;;;;;;;;;;;17.10;68.30;;;;;;5069562;28;20449;-81
2022/08/02 01:50:01;;;;;;;;;;;17.00;68.20;;;;;;5068115;28;19955;-82
2022/08/02 01:52:29;;;;;;;;;;;17.00;68.20;;;;;;5072442;28;19908;-74
2022/08/02 01:55:04;;;;;;;;;;;17.00;68.20;;;;;;5067216;28;19923;-81
2022/08/02 01:57:32;;;;;;;;;;;17.00;68.20;;;;;;5060483;28;19908;-82
2022/08/02 01:59:59;;;;;;;;;;;17.00;68.30;;;;;;5079818;28;19932;-81
2022/08/02 02:02:26;;;;;;;;;;;17.00;68.30;;;;;;5074481;28;19916;-81
2022/08/02 02:04:51;;;;;;;;;;;17.00;68.30;;;;;;5072069;28;20362;-81
2022/08/02 02:07:18;;;;;;;;;;;16.90;68.30;;;;;;5071592;28;19961;-82
2022/08/02 02:09:45;;;;;;;;;;;16.90;68.40;;;;;;5071193;28;20287;-81
2022/08/02 02:12:12;;;;;;;;;;;16.80;68.30;;;;;;5056338;28;20275;-74
2022/08/02 02:14:37;;;;;;;;;;;16.90;68.40;;;;;;5068198;28;19962;-74
2022/08/02 02:17:03;;;;;;;;;;;16.80;68.40;;;;;;5069932;28;19920;-74
2022/08/02 02:19:29;;;;;;;;;;;16.80;68.50;;;;;;5069325;28;19909;-74
2022/08/02 02:21:55;;;;;;;;;;;16.80;68.60;;;;;;5079352;28;19924;-74
2022/08/02 02:24:21;;;;;;;;;;;16.70;68.60;;;;;;5074474;28;19909;-74
2022/08/02 02:26:47;;;;;;;;;;;16.80;68.70;;;;;;5075015;28;20363;-74
2022/08/02 02:29:20;;;;;;;;;;;16.80;68.60;;;;;;5067828;28;19912;-74
2022/08/02 02:31:48;;;;;;;;;;;16.80;68.60;;;;;;5072370;28;19913;-74
2022/08/02 02:34:15;;;;;;;;;;;16.80;68.70;;;;;;5070015;28;20003;-74
2022/08/02 02:36:44;;;;;;;;;;;16.70;68.70;;;;;;5070251;28;19912;-74
2022/08/02 02:39:10;;;;;;;;;;;16.70;68.80;;;;;;5071803;28;20668;-82
2022/08/02 02:41:36;;;;;;;;;;;16.70;69.50;;;;;;5071714;28;19935;-82
2022/08/02 02:44:02;;;;;;;;;;;16.70;68.90;;;;;;5060082;28;19909;-82
2022/08/02 02:46:29;;;;;;;;;;;16.70;69.10;;;;;;5068946;28;19916;-82
2022/08/02 02:48:55;;;;;;;;;;;16.70;69.20;;;;;;5070559;28;19913;-81
2022/08/02 02:51:21;;;;;;;;;;;16.70;69.20;;;;;;5071470;28;19921;-82
2022/08/02 02:53:49;;;;;;;;;;;16.70;69.10;;;;;;5067777;28;20386;-82
2022/08/02 02:56:18;;;;;;;;;;;16.70;69.10;;;;;;5070381;28;20260;-82
2022/08/02 02:58:44;;;;;;;;;;;16.70;69.10;;;;;;5069820;28;20311;-82
2022/08/02 03:03:54;;;;;;;;;;;16.70;69.10;;;;;;5074382;28;19943;-81
2022/08/02 03:06:20;;;;;;;;;;;16.70;69.30;;;;;;5067231;28;19912;-81
2022/08/02 03:08:46;;;;;;;;;;;16.70;69.20;;;;;;5070316;28;19908;-82
2022/08/02 03:11:12;;;;;;;;;;;16.70;69.30;;;;;;5102168;28;19960;-82
2022/08/02 03:13:38;;;;;;;;;;;16.70;69.40;;;;;;5070441;28;20411;-75
2022/08/02 03:16:03;;;;;;;;;;;16.70;69.50;;;;;;5070809;28;19992;-75
2022/08/02 03:18:32;;;;;;;;;;;16.70;69.60;;;;;;5069298;28;19935;-74
2022/08/02 03:21:02;;;;;;;;;;;16.70;69.70;;;;;;5069950;28;19919;-75
2022/08/02 03:23:28;;;;;;;;;;;16.70;69.60;;;;;;5068796;28;19927;-74
2022/08/02 03:25:53;;;;;;;;;;;16.70;69.60;;;;;;5069562;28;19920;-75
2022/08/02 03:28:19;;;;;;;;;;;16.70;69.60;;;;;;5069012;28;19937;-81
2022/08/02 03:30:44;;;;;;;;;;;16.70;69.80;;;;;;5070033;28;19908;-82
2022/08/02 03:33:10;;;;;;;;;;;16.70;69.80;;;;;;5071864;28;20012;-82
2022/08/02 03:35:36;;;;;;;;;;;16.70;69.70;;;;;;5068988;28;20390;-75
2022/08/02 03:38:02;;;;;;;;;;;16.70;69.60;;;;;;5081062;28;19955;-75
2022/08/02 03:40:28;;;;;;;;;;;16.60;69.60;;;;;;5069783;28;20371;-75
2022/08/02 03:42:54;;;;;;;;;;;16.60;69.60;;;;;;5073833;28;20619;-75
2022/08/02 03:45:19;;;;;;;;;;;16.60;69.80;;;;;;5070208;28;20001;-74
2022/08/02 03:47:45;;;;;;;;;;;16.60;69.80;;;;;;5071003;28;19934;-82
2022/08/02 03:50:12;;;;;;;;;;;16.60;69.90;;;;;;5072399;28;19921;-76
2022/08/02 03:52:38;;;;;;;;;;;16.60;70.00;;;;;;5070413;28;19951;-75
2022/08/02 03:55:04;;;;;;;;;;;16.60;70.20;;;;;;5069775;28;19916;-75
2022/08/02 03:57:30;;;;;;;;;;;16.60;70.20;;;;;;5068920;28;19920;-75
2022/08/02 03:59:55;;;;;;;;;;;16.70;70.30;;;;;;5077198;28;19950;-75
2022/08/02 04:02:21;;;;;;;;;;;16.70;70.40;;;;;;5078119;28;19917;-80
2022/08/02 04:04:46;;;;;;;;;;;16.70;70.60;;;;;;5082520;28;19908;-82
2022/08/02 04:07:12;;;;;;;;;;;16.70;70.70;;;;;;5068293;28;20007;-82
2022/08/02 04:09:37;;;;;;;;;;;16.70;70.80;;;;;;5068220;28;20038;-76
2022/08/02 04:12:03;;;;;;;;;;;16.80;71.00;;;;;;5068461;28;20371;-76
2022/08/02 04:14:29;;;;;;;;;;;16.80;70.90;;;;;;5069668;28;19917;-75
2022/08/02 04:16:58;;;;;;;;;;;16.80;70.90;;;;;;5072507;28;19913;-76
2022/08/02 04:19:28;;;;;;;;;;;16.90;71.10;;;;;;5063451;28;20282;-76
2022/08/02 04:21:54;;;;;;;;;;;16.90;71.10;;;;;;5069347;28;19923;-76
2022/08/02 04:24:22;;;;;;;;;;;16.90;71.20;;;;;;5066932;28;20314;-76
2022/08/02 04:26:48;;;;;;;;;;;16.90;71.30;;;;;;5067859;28;19908;-76
2022/08/02 04:29:14;;;;;;;;;;;16.90;71.40;;;;;;5067001;28;19916;-82
2022/08/02 04:31:41;;;;;;;;;;;17.00;71.50;;;;;;5076880;28;20027;-82
2022/08/02 04:34:06;;;;;;;;;;;17.00;71.50;;;;;;5071975;28;20356;-80
2022/08/02 04:36:32;;;;;;;;;;;17.10;71.40;;;;;;5070278;28;19942;-74
2022/08/02 04:38:58;;;;;;;;;;;17.10;71.30;;;;;;5074232;28;19973;-74
2022/08/02 04:41:35;;;;;;;;;;;17.20;71.30;;;;;;5062090;28;20267;-80
2022/08/02 04:44:00;;;;;;;;;;;17.20;71.20;;;;;;5072715;28;20043;-80
2022/08/02 04:46:26;;;;;;;;;;;17.20;71.20;;;;;;5067850;28;20051;-80
2022/08/02 04:48:51;;;;;;;;;;;17.30;71.20;;;;;;5075303;28;20600;-80
2022/08/02 04:51:17;;;;;;;;;;;17.30;71.10;;;;;;5055563;28;19975;-80
2022/08/02 04:53:42;;;;;;;;;;;17.30;71.20;;;;;;5074070;28;19913;-80
2022/08/02 04:56:08;;;;;;;;;;;17.30;71.20;;;;;;5076542;28;19916;-79
2022/08/02 04:58:34;;;;;;;;;;;17.30;71.20;;;;;;5074250;28;19916;-74
2022/08/02 05:00:59;;;;;;;;;;;17.40;71.40;;;;;;5059858;28;19936;-79
2022/08/02 05:03:25;;;;;;;;;;;17.40;71.40;;;;;;5080486;28;20333;-80
2022/08/02 05:05:50;;;;;;;;;;;17.40;71.40;;;;;;5093639;28;20272;-80
2022/08/02 05:08:16;;;;;;;;;;;17.40;71.30;;;;;;5090957;28;19916;-76
2022/08/02 05:10:41;;;;;;;;;;;17.50;71.40;;;;;;5092591;28;20087;-75
2022/08/02 05:13:07;;;;;;;;;;;17.60;71.60;;;;;;5093645;28;19916;-81
2022/08/02 05:15:32;;;;;;;;;;;17.60;71.70;;;;;;5084105;28;20871;-81
2022/08/02 05:17:58;;;;;;;;;;;17.60;71.70;;;;;;5075334;28;19916;-75
2022/08/02 05:20:24;;;;;;;;;;;17.70;71.70;;;;;;5082901;28;19916;-75
2022/08/02 05:22:49;;;;;;;;;;;17.80;71.60;;;;;;5085440;28;20359;-75
2022/08/02 05:25:15;;;;;;;;;;;17.80;71.40;;;;;;5081351;28;19916;-75
2022/08/02 05:27:40;;;;;;;;;;;17.80;71.30;;;;;;5071388;28;20372;-75
2022/08/02 05:30:06;;;;;;;;;;;17.90;71.30;;;;;;5075744;28;19919;-75
2022/08/02 05:32:32;;;;;;;;;;;17.90;71.20;;;;;;5077214;28;19952;-81
2022/08/02 05:34:59;;;;;;;;;;;17.90;71.10;;;;;;5079039;28;20387;-81
2022/08/02 05:37:24;;;;;;;;;;;18.00;71.10;;;;;;5079689;28;19912;-81
2022/08/02 05:39:50;;;;;;;;;;;18.00;71.00;;;;;;5075210;28;20504;-80
2022/08/02 05:42:15;;;;;;;;;;;18.10;71.00;;;;;;5079992;28;19957;-80
2022/08/02 05:44:41;;;;;;;;;;;18.20;70.80;;;;;;5076208;28;19919;-81
2022/08/02 05:47:06;;;;;;;;;;;18.20;70.70;;;;;;5079381;28;19923;-81
2022/08/02 05:49:32;;;;;;;;;;;18.30;70.70;;;;;;5074430;28;19921;-81
2022/08/02 05:52:03;;;;;;;;;;;18.30;70.50;;;;;;5073903;28;19940;-80
2022/08/02 05:54:49;;;;;;;;;;;18.40;70.40;;;;;;5079849;28;19912;-80
2022/08/02 05:57:22;;;;;;;;;;;18.50;70.30;;;;;;5074049;28;19912;-81
2022/08/02 05:59:59;;;;;;;;;;;18.50;70.20;;;;;;5077024;28;19924;-80
2022/08/02 06:02:31;;;;;;;;;;;18.60;70.10;;;;;;5079348;28;19916;-81
2022/08/02 06:05:03;;;;;;;;;;;18.70;70.00;;;;;;5071192;28;19913;-81
2022/08/02 06:07:29;;;;;;;;;;;18.80;70.00;;;;;;5079343;28;20367;-81
2022/08/02 06:09:55;;;;;;;;;;;18.80;69.90;;;;;;5078299;28;19917;-81
2022/08/02 06:12:24;;;;;;;;;;;18.90;69.80;;;;;;5079988;28;20576;-81
2022/08/02 06:14:50;;;;;;;;;;;19.00;69.70;;;;;;5080663;28;19920;-81
2022/08/02 06:17:15;;;;;;;;;;;19.00;69.60;;;;;;5086138;28;19917;-81
2022/08/02 06:19:41;;;;;;;;;;;19.10;69.40;;;;;;5072920;28;19916;-75
2022/08/02 06:22:16;;;;;;;;;;;19.10;69.20;;;;;;5076430;28;20409;-74
2022/08/02 06:24:43;;;;;;;;;;;19.20;69.30;;;;;;5069928;28;19943;-74
2022/08/02 06:27:11;;;;;;;;;;;19.30;69.20;;;;;;5069120;28;19916;-74
2022/08/02 06:29:37;;;;;;;;;;;19.40;68.80;;;;;;5076956;28;19912;-82
2022/08/02 06:32:02;;;;;;;;;;;19.50;68.50;;;;;;5068588;28;19912;-74
2022/08/02 06:34:28;;;;;;;;;;;19.60;68.30;;;;;;5069323;28;19923;-81
2022/08/02 06:37:01;;;;;;;;;;;19.70;68.10;;;;;;5071937;28;20320;-81
2022/08/02 06:39:42;;;;;;;;;;;19.80;67.80;;;;;;5073632;28;19959;-74
2022/08/02 06:42:10;;;;;;;;;;;19.90;67.80;;;;;;5071855;28;19909;-74
2022/08/02 06:44:37;;;;;;;;;;;20.00;67.60;;;;;;5070178;28;19973;-74
2022/08/02 06:47:03;;;;;;;;;;;20.00;67.30;;;;;;5079471;28;19931;-81
2022/08/02 06:49:28;;;;;;;;;;;20.10;67.90;;;;;;5070958;28;20430;-82
2022/08/02 06:51:54;;;;;;;;;;;20.10;67.20;;;;;;5074174;28;19909;-81
2022/08/02 06:54:20;;;;;;;;;;;20.10;67.30;;;;;;5072235;28;19924;-81
2022/08/02 06:56:46;;;;;;;;;;;20.10;67.30;;;;;;5074611;28;19927;-72
2022/08/02 06:59:12;;;;;;;;;;;20.20;67.30;;;;;;5087650;28;19925;-72
2022/08/02 07:01:37;;;;;;;;;;;20.20;67.40;;;;;;5075757;28;19924;-72
2022/08/02 07:04:03;;;;;;;;;;;20.40;67.20;;;;;;5086841;28;19921;-72
2022/08/02 07:06:29;;;;;;;;;;;20.50;67.10;;;;;;5053252;28;19935;-73
2022/08/02 07:08:55;;;;;;;;;;;20.60;66.90;;;;;;5102455;28;19912;-77
2022/08/02 07:11:21;;;;;;;;;;;20.70;66.70;;;;;;5093232;28;20377;-79
2022/08/02 07:13:46;;;;;;;;;;;20.80;66.50;;;;;;5071665;28;19926;-75
2022/08/02 07:16:15;;;;;;;;;;;20.90;66.50;;;;;;5078889;28;19939;-77
2022/08/02 07:18:41;;;;;;;;;;;21.00;66.40;;;;;;5085456;28;19916;-80
2022/08/02 07:21:06;;;;;;;;;;;21.10;66.20;;;;;;5095566;28;20030;-79
2022/08/02 07:23:32;;;;;;;;;;;21.20;66.20;;;;;;5096193;28;19921;-77
2022/08/02 07:26:07;;;;;;;;;;;21.30;66.00;;;;;;5077481;28;19924;-78
2022/08/02 07:28:33;;;;;;;;;;;21.40;66.00;;;;;;5072463;28;20307;-74
2022/08/02 07:30:58;;;;;;;;;;;21.50;65.90;;;;;;5073442;28;19928;-77
2022/08/02 07:33:26;;;;;;;;;;;21.50;65.80;;;;;;5071701;28;19920;-80
2022/08/02 07:35:51;;;;;;;;;;;21.60;66.40;;;;;;5070754;28;19959;-78
2022/08/02 07:38:17;;;;;;;;;;;21.70;66.00;;;;;;5079420;28;19971;-79
2022/08/02 07:40:42;;;;;;;;;;;21.80;66.40;;;;;;5067708;28;19921;-78
2022/08/02 07:43:08;;;;;;;;;;;21.90;65.60;;;;;;5088257;28;19912;-72
2022/08/02 07:45:34;;;;;;;;;;;22.00;65.30;;;;;;5059627;28;19917;-72
2022/08/02 07:47:59;;;;;;;;;;;22.20;64.90;;;;;;5097537;27;19927;-78
2022/08/02 07:50:27;;;;;;;;;;;22.20;64.60;;;;;;5074876;28;19924;-78
2022/08/02 07:52:52;;;;;;;;;;;22.20;65.10;;;;;;5105083;27;19924;-76
2022/08/02 07:55:18;;;;;;;;;;;22.20;65.10;;;;;;5070161;28;20234;-73
2022/08/02 07:57:44;;;;;;;;;;;22.30;65.00;;;;;;5076629;28;19917;-72
2022/08/02 08:00:10;;;;;;;;;;;22.40;64.90;;;;;;5066514;28;19920;-71
2022/08/02 08:02:36;;;;;;;;;;;22.50;64.80;;;;;;5065139;28;19923;-71
2022/08/02 08:05:02;;;;;;;;;;;22.70;64.60;;;;;;5077983;28;19915;-71
2022/08/02 08:07:28;;;;;;;;;;;22.80;64.20;;;;;;5079754;28;19963;-71
2022/08/02 08:09:53;;;;;;;;;;;22.90;64.20;;;;;;5103884;28;20311;-79
2022/08/02 08:12:19;;;;;;;;;;;23.00;64.20;;;;;;5091322;28;20299;-79
2022/08/02 08:14:45;;;;;;;;;;;23.10;64.00;;;;;;5087946;28;19908;-78
2022/08/02 08:17:10;;;;;;;;;;;23.20;63.60;;;;;;5079980;28;19982;-71
2022/08/02 08:19:36;;;;;;;;;;;23.20;63.70;;;;;;5077149;28;19917;-71
2022/08/02 08:22:02;;;;;;;;;;;23.30;63.50;;;;;;5079457;28;20278;-71
2022/08/02 08:24:28;;;;;;;;;;;23.50;63.50;;;;;;5077697;28;20430;-71
2022/08/02 08:26:54;;;;;;;;;;;23.60;63.10;;;;;;5082989;28;19959;-78
2022/08/02 08:29:21;;;;;;;;;;;23.70;62.80;;;;;;5104908;28;19913;-78
2022/08/02 08:31:47;;;;;;;;;;;23.70;62.00;;;;;;5090582;28;19923;-71
2022/08/02 08:34:13;;;;;;;;;;;23.80;62.00;;;;;;5081293;28;20129;-71
2022/08/02 08:36:39;;;;;;;;;;;23.90;62.00;;;;;;5076567;28;19989;-71
2022/08/02 08:39:05;;;;;;;;;;;24.10;60.90;;;;;;5108864;28;19904;-78
2022/08/02 08:41:30;;;;;;;;;;;24.20;60.80;;;;;;5095736;28;19927;-78
2022/08/02 08:43:58;;;;;;;;;;;24.30;60.00;;;;;;5090206;28;19924;-71
2022/08/02 08:46:27;;;;;;;;;;;24.40;60.10;;;;;;5074050;28;20038;-71
2022/08/02 08:49:06;;;;;;;;;;;24.40;60.00;;;;;;5068601;28;19916;-72
2022/08/02 08:51:36;;;;;;;;;;;24.50;59.20;;;;;;5090303;22;19931;-78
2022/08/02 08:54:02;;;;;;;;;;;24.50;58.70;;;;;;5104619;28;19915;-78
2022/08/02 08:56:30;;;;;;;;;;;24.50;59.00;;;;;;5107655;28;19916;-78
2022/08/02 08:58:55;;;;;;;;;;;24.50;58.90;;;;;;5093354;28;19912;-77
2022/08/02 09:01:21;;;;;;;;;;;24.50;59.10;;;;;;5112721;28;19965;-78
2022/08/02 09:03:46;;;;;;;;;;;24.50;59.30;;;;;;5110669;28;19912;-78
2022/08/02 09:06:12;;;;;;;;;;;24.70;59.50;;;;;;5117560;28;19948;-78
2022/08/02 09:08:37;;;;;;;;;;;24.90;58.90;;;;;;5116782;28;20316;-79
2022/08/02 09:11:10;;;;;;;;;;;25.00;58.40;;;;;;5110491;28;19967;-78
2022/08/02 09:13:36;;;;;;;;;;;25.10;58.10;;;;;;5103305;28;19981;-71
2022/08/02 09:16:06;;;;;;;;;;;25.20;58.20;;;;;;5100127;28;20367;-71
2022/08/02 09:18:36;;;;;;;;;;;25.20;57.80;;;;;;5094370;28;19916;-71
2022/08/02 09:21:03;;;;;;;;;;;25.30;57.90;;;;;;5104095;28;19920;-71
2022/08/02 09:23:35;;;;;;;;;;;25.30;57.70;;;;;;5093473;28;20075;-71
2022/08/02 09:26:01;;;;;;;;;;;25.40;57.60;;;;;;5091638;28;20354;-79
2022/08/02 09:28:28;;;;;;;;;;;25.50;57.10;;;;;;5101227;28;19936;-79
2022/08/02 09:31:01;;;;;;;;;;;25.50;56.90;;;;;;5097126;28;20010;-79
2022/08/02 09:33:27;;;;;;;;;;;25.60;54.40;;;;;;5097025;28;19920;-79
2022/08/02 09:36:00;;;;;;;;;;;25.50;53.10;;;;;;5091655;28;20379;-80
2022/08/02 09:38:25;;;;;;;;;;;25.50;53.00;;;;;;5096618;28;19912;-79
2022/08/02 09:40:51;;;;;;;;;;;25.50;53.30;;;;;;5096141;28;19912;-79
2022/08/02 09:43:16;;;;;;;;;;;25.60;53.70;;;;;;5099206;28;19922;-80
2022/08/02 09:45:42;;;;;;;;;;;25.80;52.50;;;;;;5093949;28;19912;-70
2022/08/02 09:48:08;;;;;;;;;;;26.00;52.80;;;;;;5077510;28;19969;-79
2022/08/02 09:50:35;;;;;;;;;;;26.10;52.50;;;;;;5096317;28;19908;-79
2022/08/02 09:53:01;;;;;;;;;;;26.10;51.60;;;;;;5094743;28;19924;-71
2022/08/02 09:55:27;;;;;;;;;;;26.20;50.30;;;;;;5092278;28;19956;-71
2022/08/02 09:57:53;;;;;;;;;;;26.20;50.40;;;;;;5093675;28;19912;-71
2022/08/02 10:00:19;;;;;;;;;;;26.30;50.20;;;;;;5098751;28;19923;-71
2022/08/02 10:03:03;;;;;;;;;;;26.40;50.60;;;;;;5079183;28;19920;-71
2022/08/02 10:05:29;;;;;;;;;;;26.50;50.70;;;;;;5095262;28;20205;-79
2022/08/02 10:08:02;;;;;;;;;;;26.60;50.70;;;;;;5085065;28;19916;-79
2022/08/02 10:10:28;;;;;;;;;;;26.70;50.80;;;;;;5091103;28;19908;-81
2022/08/02 10:12:53;;;;;;;;;;;26.80;50.60;;;;;;5097602;28;19916;-79
2022/08/02 10:15:19;;;;;;;;;;;26.80;50.60;;;;;;5097945;28;19913;-79
2022/08/02 10:17:44;;;;;;;;;;;26.90;50.60;;;;;;5098336;28;19955;-79
2022/08/02 10:20:10;;;;;;;;;;;27.00;50.00;;;;;;5106506;28;19920;-80
2022/08/02 10:22:39;;;;;;;;;;;27.10;50.60;;;;;;5099911;28;19916;-79
2022/08/02 10:25:05;;;;;;;;;;;27.20;49.80;;;;;;5099365;28;19916;-80
2022/08/02 10:27:31;;;;;;;;;;;27.30;50.30;;;;;;5098888;28;19912;-79
2022/08/02 10:29:58;;;;;;;;;;;27.30;49.90;;;;;;5093618;28;19931;-80
2022/08/02 10:32:24;;;;;;;;;;;27.40;50.20;;;;;;5102114;28;20297;-79
2022/08/02 10:35:06;;;;;;;;;;;27.60;49.90;;;;;;5097228;28;19955;-79
2022/08/02 10:37:33;;;;;;;;;;;27.70;50.30;;;;;;5092257;28;20362;-71
2022/08/02 10:39:59;;;;;;;;;;;27.80;49.30;;;;;;5088229;28;19920;-71
2022/08/02 10:42:43;;;;;;;;;;;27.90;49.60;;;;;;5084686;28;19927;-71
2022/08/02 10:45:09;;;;;;;;;;;27.90;48.80;;;;;;5092813;28;19912;-71
2022/08/02 10:47:35;;;;;;;;;;;27.90;49.20;;;;;;5080688;28;19912;-71
2022/08/02 10:50:02;;;;;;;;;;;27.80;48.60;;;;;;5088500;28;19916;-71
2022/08/02 10:52:31;;;;;;;;;;;27.80;49.20;;;;;;5087654;28;19939;-71
2022/08/02 10:55:09;;;;;;;;;;;27.80;48.70;;;;;;5092808;28;19908;-71
2022/08/02 10:57:35;;;;;;;;;;;27.80;49.00;;;;;;5083146;28;19920;-71
2022/08/02 11:00:08;;;;;;;;;;;27.90;48.70;;;;;;5087006;28;19920;-71
2022/08/02 11:02:35;;;;;;;;;;;28.00;48.90;;;;;;5091256;28;20295;-71
2022/08/02 11:05:03;;;;;;;;;;;28.20;48.20;;;;;;5085881;28;19943;-71
2022/08/02 11:07:36;;;;;;;;;;;28.40;48.60;;;;;;5096557;28;19912;-71
2022/08/02 11:10:20;;;;;;;;;;;28.70;47.50;;;;;;5083676;28;20268;-71
2022/08/02 11:13:04;;;;;;;;;;;28.80;47.40;;;;;;5086411;28;19947;-71
2022/08/02 11:15:46;;;;;;;;;;;28.90;46.90;;;;;;5092201;28;19916;-71
2022/08/02 11:18:12;;;;;;;;;;;29.00;46.30;;;;;;5081883;28;19918;-71
2022/08/02 11:20:37;;;;;;;;;;;29.00;45.60;;;;;;5086579;28;19920;-71
2022/08/02 11:23:31;;;;;;;;;;;29.00;45.00;;;;;;5084842;28;19916;-71
2022/08/02 11:25:57;;;;;;;;;;;29.20;45.60;;;;;;5087054;28;19919;-71
2022/08/02 11:28:22;;;;;;;;;;;29.30;44.90;;;;;;5076489;28;19912;-71
2022/08/02 11:30:54;;;;;;;;;;;29.40;44.70;;;;;;5088892;28;19923;-71
2022/08/02 11:33:20;;;;;;;;;;;29.40;44.40;;;;;;5090250;28;20256;-71
2022/08/02 11:35:46;;;;;;;;;;;29.40;44.60;;;;;;5076990;28;19924;-71
2022/08/02 11:38:19;;;;;;;;;;;29.40;44.80;;;;;;5086450;28;19916;-71
2022/08/02 11:40:45;;;;;;;;;;;29.50;44.40;;;;;;5085801;28;19916;-71
2022/08/02 11:43:15;;;;;;;;;;;29.50;44.30;;;;;;5090539;28;20596;-71
2022/08/02 11:45:41;;;;;;;;;;;29.60;44.00;;;;;;5091233;28;19916;-71
2022/08/02 11:48:06;;;;;;;;;;;29.70;42.50;;;;;;5110852;28;20007;-71
2022/08/02 11:50:32;;;;;;;;;;;29.80;43.20;;;;;;5106010;28;19916;-71
2022/08/02 11:52:57;;;;;;;;;;;30.10;43.40;;;;;;5102244;28;19985;-81
2022/08/02 11:55:30;;;;;;;;;;;30.30;43.20;;;;;;5108463;28;19916;-80
2022/08/02 11:58:02;;;;;;;;;;;30.60;42.40;;;;;;5097884;28;19920;-78
2022/08/02 12:00:28;;;;;;;;;;;30.80;41.50;;;;;;5104915;27;19970;-78
2022/08/02 12:02:55;;;;;;;;;;;30.80;40.60;;;;;;5103326;28;20133;-79
2022/08/02 12:05:22;;;;;;;;;;;30.70;40.80;;;;;;5109076;28;19920;-79
2022/08/02 12:07:57;;;;;;;;;;;30.60;41.20;;;;;;5107075;28;19915;-79
2022/08/02 12:10:23;;;;;;;;;;;30.40;42.40;;;;;;5107205;28;19947;-78
2022/08/02 12:12:53;;;;;;;;;;;30.40;41.10;;;;;;5106622;28;19912;-79
2022/08/02 12:15:40;;;;;;;;;;;30.50;41.30;;;;;;5108199;28;19912;-79
2022/08/02 12:21:23;;;;;;;;;;;30.80;41.30;;;;;;5100402;28;19942;-79
2022/08/02 12:23:49;;;;;;;;;;;30.80;40.20;;;;;;5106551;28;20282;-80
2022/08/02 12:26:14;;;;;;;;;;;30.70;40.70;;;;;;5100270;28;20507;-79
2022/08/02 12:28:40;;;;;;;;;;;30.90;40.80;;;;;;5100418;28;20324;-80
2022/08/02 12:31:09;;;;;;;;;;;31.10;40.30;;;;;;5103618;28;20037;-73
2022/08/02 12:33:45;;;;;;;;;;;31.30;40.10;;;;;;5103982;28;20042;-73
2022/08/02 12:36:17;;;;;;;;;;;31.70;40.20;;;;;;5099215;28;20407;-73
2022/08/02 12:38:56;;;;;;;;;;;32.00;39.30;;;;;;5100003;28;19962;-73
2022/08/02 12:41:22;;;;;;;;;;;32.20;38.80;;;;;;5106928;28;20256;-73
2022/08/02 12:43:48;;;;;;;;;;;32.30;37.60;;;;;;5102971;28;19923;-73
2022/08/02 12:46:15;;;;;;;;;;;32.40;37.00;;;;;;5105387;28;19919;-73
2022/08/02 12:48:41;;;;;;;;;;;32.30;37.30;;;;;;5101819;28;20607;-73
2022/08/02 12:51:19;;;;;;;;;;;32.40;37.60;;;;;;5106844;28;19965;-73
2022/08/02 12:53:45;;;;;;;;;;;32.40;37.00;;;;;;5106140;28;19920;-73
2022/08/02 12:56:10;;;;;;;;;;;32.20;36.50;;;;;;5099576;28;20294;-73
2022/08/02 12:58:47;;;;;;;;;;;32.20;36.60;;;;;;5106447;28;19955;-73
2022/08/02 13:01:18;;;;;;;;;;;32.30;36.80;;;;;;5104843;28;20379;-73
2022/08/02 13:03:44;;;;;;;;;;;32.40;36.80;;;;;;5108696;28;19998;-73
2022/08/02 13:06:10;;;;;;;;;;;32.30;36.40;;;;;;5108908;28;20390;-73
2022/08/02 13:08:35;;;;;;;;;;;32.40;36.10;;;;;;5102047;28;19920;-73
2022/08/02 13:11:01;;;;;;;;;;;32.40;36.00;;;;;;5091977;28;19938;-73
2022/08/02 13:13:26;;;;;;;;;;;32.40;36.60;;;;;;5092157;28;19916;-73
2022/08/02 13:15:52;;;;;;;;;;;32.50;36.20;;;;;;5091387;28;20301;-73
2022/08/02 13:18:17;;;;;;;;;;;32.50;36.60;;;;;;5091978;28;20382;-73
2022/08/02 13:20:43;;;;;;;;;;;32.50;36.00;;;;;;5091116;28;20486;-80
2022/08/02 13:23:08;;;;;;;;;;;32.30;36.50;;;;;;5092794;28;19969;-81
2022/08/02 13:25:34;;;;;;;;;;;32.30;36.40;;;;;;5093050;28;20366;-80
2022/08/02 13:27:59;;;;;;;;;;;32.20;36.40;;;;;;5092681;28;19958;-81
2022/08/02 13:30:25;;;;;;;;;;;32.20;37.00;;;;;;5114536;28;20438;-79
2022/08/02 13:32:51;;;;;;;;;;;32.40;37.10;;;;;;5102156;28;20046;-80
2022/08/02 13:35:16;;;;;;;;;;;32.70;37.00;;;;;;5109999;28;19953;-78
2022/08/02 13:37:43;;;;;;;;;;;32.70;36.40;;;;;;5102703;28;19919;-81
2022/08/02 13:40:09;;;;;;;;;;;32.70;36.10;;;;;;5096556;28;19984;-81
2022/08/02 13:42:35;;;;;;;;;;;32.90;36.60;;;;;;5099822;28;19927;-80
2022/08/02 13:45:00;;;;;;;;;;;33.20;35.60;;;;;;5081377;28;20019;-80
2022/08/02 13:47:26;;;;;;;;;;;33.20;34.80;;;;;;5097151;28;19927;-79
2022/08/02 13:49:51;;;;;;;;;;;33.20;35.60;;;;;;5097579;28;19973;-80
2022/08/02 13:52:17;;;;;;;;;;;33.20;35.20;;;;;;5103221;28;19924;-81
2022/08/02 13:54:43;;;;;;;;;;;33.00;34.60;;;;;;5097505;28;20229;-80
2022/08/02 13:57:08;;;;;;;;;;;32.90;35.10;;;;;;5105556;28;20365;-80
2022/08/02 13:59:34;;;;;;;;;;;32.80;35.50;;;;;;5107366;28;19923;-79
2022/08/02 14:01:59;;;;;;;;;;;32.90;33.60;;;;;;5106787;28;19915;-80
2022/08/02 14:04:26;;;;;;;;;;;32.80;34.00;;;;;;5104801;28;19975;-81
2022/08/02 14:06:51;;;;;;;;;;;32.90;34.40;;;;;;5108645;28;19934;-80
2022/08/02 14:09:17;;;;;;;;;;;33.00;34.30;;;;;;5105847;28;20014;-80
2022/08/02 14:11:43;;;;;;;;;;;33.00;33.50;;;;;;5099570;28;20328;-80
2022/08/02 14:14:08;;;;;;;;;;;33.00;33.90;;;;;;5108297;28;19953;-80
2022/08/02 14:16:34;;;;;;;;;;;33.10;33.90;;;;;;5107128;28;19920;-79
2022/08/02 14:19:00;;;;;;;;;;;33.30;34.30;;;;;;5096684;28;19916;-80
2022/08/02 14:21:25;;;;;;;;;;;33.50;34.40;;;;;;5095921;28;19962;-80
2022/08/02 14:23:51;;;;;;;;;;;33.60;34.30;;;;;;5104177;28;19920;-79